»·PEaware :: AAL614 KMBS-KPHL

AAL614 :: KMBS-KPHL

FLIGHT INFORMATION

Flight Status: Arrived
Operator:
American Airlines
More flights by this operator :: More flights under this callsign
Pilot: John H. (7647)
Aircraft: BOEING 737-800
(B738)
More flights by this aircraft type
Origin: KMBS Mbs Intl
United States
Destination: KPHL Philadelphia Intl
United States
More flights between these airports :: More routes between these airports
Route: JST BOJID2
File this flight plan on PilotEdge
Remarks:
Altitude:
(Current/Filed)
15,000ft
Speed:
(Current/Filed)
420kts
Departed: 10-Sep-18 03:52 PM
Arrived: 10-Sep-18 06:02 PM
Distance/Time
Traveled:
452nm/2:10
Distance/Time
To Go:
Arrived

Flight Plot

Page will automatically refresh every two minutes.

Flight plan parsing failed; only flown route is shown


Map Options




Map Legend


Flown Route
Filed Route
Departure Airport
Arrival Airport
Navaid (VOR, NDB)
Fix

Horizontal Profiles

Position Reports

Time Latitude Longitude Heading Altitude Ground
Speed
10-Sep-18 15:50 43.537892 -84.083544 180 665ft 0kts
10-Sep-18 15:51 43.537836 -84.083544 180 665ft 1kts
10-Sep-18 15:52 43.536350 -84.081419 65 664ft 1kts
10-Sep-18 15:53 43.536575 -84.079234 149 662ft 4kts
10-Sep-18 15:54 43.531173 -84.085944 225 667ft 46kts
10-Sep-18 15:55 43.527316 -84.088571 49 669ft 0kts
10-Sep-18 15:56 43.547812 -84.061786 40 1636ft 152kts
10-Sep-18 15:57 43.571344 -84.016558 78 3928ft 159kts
10-Sep-18 15:58 43.560776 -83.950894 137 6709ft 181kts
10-Sep-18 15:59 43.509382 -83.940497 182 9488ft 186kts
10-Sep-18 16:00 43.458976 -83.922561 159 11344ft 214kts
10-Sep-18 16:01 43.405948 -83.874613 125 13250ft 258kts
10-Sep-18 16:02 43.358518 -83.790624 129 15318ft 306kts
10-Sep-18 16:03 43.301304 -83.689914 129 17231ft 357kts
10-Sep-18 16:04 43.238318 -83.579650 127 19798ft 377kts
10-Sep-18 16:05 43.172790 -83.465151 127 22291ft 392kts
10-Sep-18 16:06 43.105006 -83.347203 128 24543ft 406kts
10-Sep-18 16:07 43.034690 -83.225287 128 26537ft 420kts
10-Sep-18 16:08 42.961742 -83.099275 127 28395ft 432kts
10-Sep-18 16:09 42.891681 -82.978698 127 30200ft 438kts
10-Sep-18 16:10 42.820380 -82.856298 129 32023ft 438kts
10-Sep-18 16:11 42.749195 -82.734563 130 34224ft 423kts
10-Sep-18 16:23 43.537589 -84.082740 90 664ft 0kts
10-Sep-18 16:24 43.537589 -84.082740 90 664ft 0kts
10-Sep-18 16:25 43.537589 -84.082740 90 664ft 0kts
10-Sep-18 16:26 43.537589 -84.082740 90 664ft 0kts
10-Sep-18 16:27 43.537589 -84.082740 90 664ft 0kts
10-Sep-18 16:28 43.537589 -84.082740 90 664ft 0kts
10-Sep-18 16:29 43.537589 -84.082740 90 664ft 0kts
10-Sep-18 16:30 43.537589 -84.082740 90 664ft 0kts
10-Sep-18 16:31 43.537589 -84.082740 89 664ft 0kts
10-Sep-18 16:32 43.537589 -84.082740 89 664ft 0kts
10-Sep-18 16:33 43.537589 -84.082740 89 664ft 0kts
10-Sep-18 16:34 43.537589 -84.082740 89 664ft 0kts
10-Sep-18 16:35 43.537589 -84.082740 89 664ft 0kts
10-Sep-18 16:36 43.537589 -84.082740 89 664ft 0kts
10-Sep-18 16:37 43.537589 -84.082740 89 664ft 0kts
10-Sep-18 16:38 43.537589 -84.082740 89 664ft 0kts
10-Sep-18 16:39 43.537589 -84.082725 90 664ft 0kts
10-Sep-18 16:40 43.537641 -84.083420 132 665ft 2kts
10-Sep-18 16:41 43.537892 -84.083541 180 665ft 0kts
10-Sep-18 16:42 43.537861 -84.083541 180 665ft 0kts
10-Sep-18 16:43 43.536928 -84.083189 116 666ft 11kts
10-Sep-18 16:44 43.534388 -84.081400 228 664ft 27kts
10-Sep-18 16:45 43.528629 -84.089653 223 670ft 13kts
10-Sep-18 16:46 43.527567 -84.088184 46 668ft 2kts
10-Sep-18 16:47 43.530697 -84.083868 45 667ft 90kts
10-Sep-18 16:48 43.558771 -84.040855 54 2769ft 142kts
10-Sep-18 16:49 43.548600 -83.983460 158 4004ft 250kts
10-Sep-18 16:50 43.478128 -83.952274 162 6885ft 279kts
10-Sep-18 16:51 43.420343 -83.882703 125 9942ft 289kts
10-Sep-18 16:52 43.368325 -83.790477 125 12093ft 329kts
10-Sep-18 16:53 43.312948 -83.692801 127 15448ft 325kts
10-Sep-18 16:54 43.255916 -83.592500 130 17831ft 349kts
10-Sep-18 16:55 43.193651 -83.483953 128 19817ft 378kts
10-Sep-18 16:56 43.127811 -83.369588 127 22135ft 391kts
10-Sep-18 16:57 43.060761 -83.253493 128 24204ft 403kts
10-Sep-18 16:58 42.991179 -83.133573 128 26035ft 416kts
10-Sep-18 16:59 42.918506 -83.008811 127 27763ft 428kts
10-Sep-18 17:00 42.850041 -82.891703 127 29241ft 438kts
10-Sep-18 17:01 42.774196 -82.762396 128 31003ft 439kts
10-Sep-18 17:02 42.711410 -82.655676 129 32533ft 436kts
10-Sep-18 17:03 42.625218 -82.509810 130 34788ft 421kts
10-Sep-18 17:04 42.563069 -82.405179 130 35032ft 444kts
10-Sep-18 17:05 42.484471 -82.273193 131 34994ft 462kts
10-Sep-18 17:06 42.404061 -82.138605 131 34993ft 461kts
10-Sep-18 17:07 42.323839 -82.004891 131 34993ft 461kts
10-Sep-18 17:08 42.243735 -81.871959 131 34994ft 461kts
10-Sep-18 17:09 42.163033 -81.738587 131 34994ft 461kts
10-Sep-18 17:10 42.082055 -81.605303 131 34996ft 461kts
10-Sep-18 17:11 42.001256 -81.472894 131 34995ft 461kts
10-Sep-18 17:12 41.920952 -81.341832 132 35023ft 460kts
10-Sep-18 17:13 41.843584 -81.216025 132 35023ft 461kts
10-Sep-18 17:14 41.771224 -81.098838 132 35048ft 461kts
10-Sep-18 17:15 41.690753 -80.969157 131 35046ft 473kts
10-Sep-18 17:16 41.609592 -80.838827 131 35048ft 473kts
10-Sep-18 17:17 41.531841 -80.714511 131 35049ft 473kts
10-Sep-18 17:18 41.454371 -80.591154 131 35050ft 473kts
10-Sep-18 17:19 41.373198 -80.462439 131 35050ft 473kts
10-Sep-18 17:20 41.298580 -80.344607 132 35060ft 490kts
10-Sep-18 17:21 41.218263 -80.218128 132 35047ft 493kts
10-Sep-18 17:22 41.134917 -80.087431 132 35075ft 493kts
10-Sep-18 17:23 41.049476 -79.954062 132 35082ft 491kts
10-Sep-18 17:24 40.969100 -79.829204 132 35079ft 492kts
10-Sep-18 17:25 40.893287 -79.711920 132 35078ft 492kts
10-Sep-18 17:26 40.810332 -79.584131 132 35077ft 492kts
10-Sep-18 17:27 40.722038 -79.448722 132 35105ft 492kts
10-Sep-18 17:28 40.638299 -79.320867 133 35098ft 491kts
10-Sep-18 17:29 40.550638 -79.187391 133 35090ft 484kts
10-Sep-18 17:30 40.461631 -79.052743 133 35100ft 491kts
10-Sep-18 17:31 40.372593 -78.918645 133 35103ft 491kts
10-Sep-18 17:32 40.317521 -78.757146 96 35111ft 496kts
10-Sep-18 17:33 40.315129 -78.579196 88 35106ft 494kts
10-Sep-18 17:34 40.314859 -78.399665 88 35114ft 494kts
10-Sep-18 17:35 40.314226 -78.227705 89 35100ft 494kts
10-Sep-18 17:36 40.313153 -78.047798 89 35101ft 495kts
10-Sep-18 17:37 40.311339 -77.868581 89 35098ft 495kts
10-Sep-18 17:38 40.309922 -77.700284 89 35104ft 495kts
10-Sep-18 17:39 40.308214 -77.538901 89 35098ft 488kts
10-Sep-18 17:40 40.306097 -77.368073 89 35107ft 482kts
10-Sep-18 17:41 40.303770 -77.195582 90 35100ft 482kts
10-Sep-18 17:42 40.292783 -77.020425 106 33930ft 489kts
10-Sep-18 17:43 40.252756 -76.850711 107 30362ft 483kts
10-Sep-18 17:44 40.214156 -76.686981 108 26807ft 472kts
10-Sep-18 17:45 40.176108 -76.525839 108 23607ft 455kts
10-Sep-18 17:46 40.139930 -76.373246 108 21251ft 423kts
10-Sep-18 17:47 40.115773 -76.241804 97 19482ft 406kts
10-Sep-18 17:48 40.106086 -76.097661 96 17777ft 394kts
10-Sep-18 17:49 40.096457 -75.956714 96 16179ft 385kts
10-Sep-18 17:50 40.086833 -75.819303 96 14543ft 376kts
10-Sep-18 17:51 40.078605 -75.686375 93 12962ft 367kts
10-Sep-18 17:52 40.072596 -75.555521 93 11373ft 358kts
10-Sep-18 17:53 40.053771 -75.433726 133 9796ft 335kts
10-Sep-18 17:54 39.982126 -75.392390 168 8685ft 285kts
10-Sep-18 17:55 39.922224 -75.433053 249 6688ft 259kts
10-Sep-18 17:56 39.902404 -75.518592 255 4586ft 238kts
10-Sep-18 17:57 39.864934 -75.572124 191 4027ft 206kts
10-Sep-18 17:58 39.819340 -75.556308 135 4023ft 165kts
10-Sep-18 17:59 39.809317 -75.502459 69 4028ft 160kts
10-Sep-18 18:00 39.825268 -75.450429 69 4037ft 147kts
10-Sep-18 18:01 39.839674 -75.395906 75 2373ft 173kts
10-Sep-18 18:02 39.847922 -75.338149 75 912ft 154kts
10-Sep-18 18:03 39.857962 -75.289360 75 202ft 132kts
10-Sep-18 18:04 39.861633 -75.270325 351 16ft 0kts

Navigation Log

Ident Type
Flight plan parsing failed, navigation log unavailable